Time;durP1;ratioP1;P1;durP2;ratioP2;P2;SDS_P1;SDS_P2;PMS_P1;PMS_P2;Temp;Humidity;BMP_temperature;BMP_pressure;BME280_temperature;BME280_humidity;BME280_pressure;Samples;Min_cycle;Max_cycle;Signal;HPM_P1;HPM_P2
2023/03/09 00:02:04;;;;;;;6.97;3.88;;;;;;;;;;5095579;28;20027;-72
2023/03/09 00:04:50;;;;;;;7.55;3.78;;;;;;;;;;5096990;28;20020;-72
2023/03/09 00:07:35;;;;;;;8.90;4.40;;;;;;;;;;5095821;28;20048;-71
2023/03/09 00:10:21;;;;;;;10.15;4.18;;;;;;;;;;5095673;28;20038;-72
2023/03/09 00:13:07;;;;;;;6.53;3.90;;;;;;;;;;5096142;28;20352;-72
2023/03/09 00:15:52;;;;;;;9.35;4.20;;;;;;;;;;5096838;28;20047;-71
2023/03/09 00:18:38;;;;;;;7.53;4.85;;;;;;;;;;5095905;28;20054;-71
2023/03/09 00:21:34;;;;;;;11.02;5.13;;;;;;;;;;5095244;28;20032;-71
2023/03/09 00:24:24;;;;;;;9.52;5.00;;;;;;;;;;5095484;28;20103;-71
2023/03/09 00:27:09;;;;;;;8.45;5.05;;;;;;;;;;5080883;28;20030;-71
2023/03/09 00:29:55;;;;;;;8.63;4.57;;;;;;;;;;5096725;28;20024;-71
2023/03/09 00:32:41;;;;;;;8.15;4.63;;;;;;;;;;5080180;28;20016;-72
2023/03/09 00:35:26;;;;;;;7.30;4.53;;;;;;;;;;5095683;28;20448;-71
2023/03/09 00:38:12;;;;;;;6.05;3.85;;;;;;;;;;5095486;28;20024;-71
2023/03/09 00:40:57;;;;;;;8.85;3.83;;;;;;;;;;5094442;28;20008;-71
2023/03/09 00:43:43;;;;;;;5.55;3.42;;;;;;;;;;5103313;28;20076;-70
2023/03/09 00:46:29;;;;;;;4.43;3.10;;;;;;;;;;5110907;28;20099;-71
2023/03/09 00:49:15;;;;;;;4.63;3.22;;;;;;;;;;5096340;28;20055;-71
2023/03/09 00:52:00;;;;;;;7.13;3.42;;;;;;;;;;5095639;28;20428;-72
2023/03/09 00:54:46;;;;;;;5.53;3.67;;;;;;;;;;5081496;28;20020;-70
2023/03/09 00:57:32;;;;;;;7.70;4.03;;;;;;;;;;5094302;28;20019;-70
2023/03/09 01:00:18;;;;;;;6.95;4.05;;;;;;;;;;5095902;28;20031;-72
2023/03/09 01:03:03;;;;;;;6.18;3.70;;;;;;;;;;5082735;28;20081;-71
2023/03/09 01:05:49;;;;;;;7.00;3.90;;;;;;;;;;5092112;28;20012;-71
2023/03/09 01:08:35;;;;;;;5.90;3.67;;;;;;;;;;5092814;28;20038;-72
2023/03/09 01:11:21;;;;;;;8.93;3.92;;;;;;;;;;5080553;28;20079;-71
2023/03/09 01:14:06;;;;;;;13.50;4.53;;;;;;;;;;5094711;28;20008;-71
2023/03/09 01:16:52;;;;;;;5.32;3.70;;;;;;;;;;5094455;28;20063;-71
2023/03/09 01:19:38;;;;;;;6.47;3.67;;;;;;;;;;5094334;28;20147;-71
2023/03/09 01:22:24;;;;;;;5.75;3.67;;;;;;;;;;5080095;28;20028;-71
2023/03/09 01:25:09;;;;;;;6.57;3.72;;;;;;;;;;5094042;28;20020;-72
2023/03/09 01:27:55;;;;;;;5.78;3.42;;;;;;;;;;5095959;28;20028;-71
2023/03/09 01:30:40;;;;;;;6.30;3.40;;;;;;;;;;5094792;28;20368;-71
2023/03/09 01:33:26;;;;;;;7.97;3.95;;;;;;;;;;5079190;28;20115;-72
2023/03/09 01:36:13;;;;;;;5.70;3.72;;;;;;;;;;5080844;28;20020;-71
2023/03/09 01:38:58;;;;;;;6.55;4.10;;;;;;;;;;5094464;28;20309;-71
2023/03/09 01:41:44;;;;;;;6.45;4.13;;;;;;;;;;5095875;28;20032;-72
2023/03/09 01:44:29;;;;;;;7.35;3.90;;;;;;;;;;5096139;28;20287;-72
2023/03/09 01:47:15;;;;;;;9.77;4.15;;;;;;;;;;5094415;28;20023;-72
2023/03/09 01:50:02;;;;;;;7.20;4.07;;;;;;;;;;5094136;28;20024;-71
2023/03/09 01:52:49;;;;;;;10.00;4.78;;;;;;;;;;5094702;28;20329;-72
2023/03/09 01:55:39;;;;;;;8.52;4.65;;;;;;;;;;5094643;28;20048;-71
2023/03/09 01:58:26;;;;;;;9.70;4.63;;;;;;;;;;5094614;28;20027;-71
2023/03/09 02:01:12;;;;;;;8.70;4.65;;;;;;;;;;5094129;28;20027;-71
2023/03/09 02:04:00;;;;;;;7.88;4.43;;;;;;;;;;5094435;28;20043;-71
2023/03/09 02:06:46;;;;;;;8.60;4.55;;;;;;;;;;5093834;28;20119;-71
2023/03/09 02:09:36;;;;;;;7.18;4.40;;;;;;;;;;5094409;28;20107;-71
2023/03/09 02:12:22;;;;;;;8.32;4.30;;;;;;;;;;5079548;28;20031;-71
2023/03/09 02:15:08;;;;;;;7.20;4.13;;;;;;;;;;5094367;28;20031;-71
2023/03/09 02:17:53;;;;;;;9.07;3.97;;;;;;;;;;5094477;28;20460;-72
2023/03/09 02:20:58;;;;;;;6.00;4.22;;;;;;;;;;5080689;28;20028;-71
2023/03/09 02:24:04;;;;;;;7.95;4.80;;;;;;;;;;5081049;28;20035;-71
2023/03/09 02:26:54;;;;;;;6.65;4.65;;;;;;;;;;5090933;28;20032;-71
2023/03/09 02:29:39;;;;;;;9.02;5.30;;;;;;;;;;5095084;28;20510;-71
2023/03/09 02:32:25;;;;;;;9.15;4.97;;;;;;;;;;5093267;28;20403;-70
2023/03/09 02:35:11;;;;;;;12.40;5.18;;;;;;;;;;5079477;28;20020;-71
2023/03/09 02:37:57;;;;;;;8.30;4.22;;;;;;;;;;5080316;28;20035;-72
2023/03/09 02:40:43;;;;;;;6.65;4.40;;;;;;;;;;5094390;28;20020;-71
2023/03/09 02:43:32;;;;;;;6.05;3.90;;;;;;;;;;5094124;28;20126;-71
2023/03/09 02:46:17;;;;;;;5.57;3.90;;;;;;;;;;5096959;28;20020;-71
2023/03/09 02:49:03;;;;;;;6.47;4.10;;;;;;;;;;5096500;28;20085;-71
2023/03/09 02:51:48;;;;;;;8.38;4.30;;;;;;;;;;5097692;28;20020;-71
2023/03/09 02:54:34;;;;;;;7.80;4.78;;;;;;;;;;5097017;28;20066;-72
2023/03/09 02:57:20;;;;;;;7.88;4.45;;;;;;;;;;5097667;28;20020;-72
2023/03/09 03:00:08;;;;;;;6.97;4.28;;;;;;;;;;5097080;28;20111;-70
2023/03/09 03:02:54;;;;;;;8.70;5.00;;;;;;;;;;5081644;28;20081;-71
2023/03/09 03:05:39;;;;;;;6.40;4.43;;;;;;;;;;5096152;28;20358;-71
2023/03/09 03:08:25;;;;;;;6.75;4.47;;;;;;;;;;5082092;28;20111;-71
2023/03/09 03:11:11;;;;;;;6.70;4.43;;;;;;;;;;5096878;28;20056;-71
2023/03/09 03:13:57;;;;;;;8.23;4.35;;;;;;;;;;5097164;28;20024;-71
2023/03/09 03:16:42;;;;;;;7.40;4.63;;;;;;;;;;5096910;28;20444;-71
2023/03/09 03:19:28;;;;;;;8.20;4.80;;;;;;;;;;5098293;28;20020;-71
2023/03/09 03:22:13;;;;;;;9.30;4.80;;;;;;;;;;5096766;28;20039;-73
2023/03/09 03:24:59;;;;;;;9.35;4.60;;;;;;;;;;5097556;28;20360;-72
2023/03/09 03:27:45;;;;;;;6.55;4.05;;;;;;;;;;5082098;28;20066;-71
2023/03/09 03:30:30;;;;;;;8.63;4.43;;;;;;;;;;5096093;28;20085;-70
2023/03/09 03:33:16;;;;;;;6.78;4.25;;;;;;;;;;5096328;28;20016;-70
2023/03/09 03:36:02;;;;;;;8.20;4.60;;;;;;;;;;5096467;28;20016;-71
2023/03/09 03:38:47;;;;;;;11.65;5.13;;;;;;;;;;5097086;28;20027;-72
2023/03/09 03:41:33;;;;;;;17.05;5.43;;;;;;;;;;5096139;28;20501;-71
2023/03/09 03:44:18;;;;;;;7.82;4.72;;;;;;;;;;5097163;28;20562;-70
2023/03/09 03:47:04;;;;;;;9.77;4.75;;;;;;;;;;5096108;28;20352;-72
2023/03/09 03:49:50;;;;;;;7.05;4.40;;;;;;;;;;5096648;28;20104;-71
2023/03/09 03:52:35;;;;;;;8.23;4.60;;;;;;;;;;5096231;28;20435;-71
2023/03/09 03:55:21;;;;;;;8.13;4.50;;;;;;;;;;5095262;28;20425;-70
2023/03/09 03:58:06;;;;;;;7.47;4.60;;;;;;;;;;5096045;28;20467;-72
2023/03/09 04:00:52;;;;;;;7.45;4.53;;;;;;;;;;5096001;28;20032;-73
2023/03/09 04:03:37;;;;;;;8.60;4.88;;;;;;;;;;5096413;28;20012;-71
2023/03/09 04:06:23;;;;;;;7.40;4.80;;;;;;;;;;5095640;28;20058;-72
2023/03/09 04:09:09;;;;;;;8.88;4.95;;;;;;;;;;5095474;28;20020;-72
2023/03/09 04:11:54;;;;;;;10.43;5.03;;;;;;;;;;5095192;28;20039;-72
2023/03/09 04:14:40;;;;;;;6.93;4.78;;;;;;;;;;5095006;28;20073;-72
2023/03/09 04:17:26;;;;;;;9.15;5.30;;;;;;;;;;5095756;28;20020;-72
2023/03/09 04:20:12;;;;;;;10.00;5.00;;;;;;;;;;5095311;28;20067;-70
2023/03/09 04:22:57;;;;;;;8.40;4.43;;;;;;;;;;5095074;28;20039;-73
2023/03/09 04:25:43;;;;;;;10.48;5.50;;;;;;;;;;5095049;28;20165;-71
2023/03/09 04:28:28;;;;;;;6.60;4.60;;;;;;;;;;5095556;28;20089;-71
2023/03/09 04:31:14;;;;;;;7.70;4.63;;;;;;;;;;5080924;28;20432;-71
2023/03/09 04:34:00;;;;;;;11.63;4.90;;;;;;;;;;5095660;28;20034;-75
2023/03/09 04:36:45;;;;;;;9.52;4.40;;;;;;;;;;5082018;28;20424;-71
2023/03/09 04:39:31;;;;;;;8.43;4.55;;;;;;;;;;5096273;28;20036;-72
2023/03/09 04:42:17;;;;;;;6.90;4.47;;;;;;;;;;5094147;28;20411;-71
2023/03/09 04:45:03;;;;;;;8.48;4.93;;;;;;;;;;5095113;28;20027;-71
2023/03/09 04:47:48;;;;;;;10.02;4.90;;;;;;;;;;5093945;28;20112;-72
2023/03/09 04:50:34;;;;;;;7.13;5.03;;;;;;;;;;5095100;28;20027;-71
2023/03/09 04:53:20;;;;;;;8.68;4.80;;;;;;;;;;5095661;28;20107;-71
2023/03/09 04:56:05;;;;;;;11.60;5.40;;;;;;;;;;5080618;28;20028;-72
2023/03/09 04:58:51;;;;;;;6.72;4.90;;;;;;;;;;5094559;28;20016;-71
2023/03/09 05:01:37;;;;;;;9.73;4.90;;;;;;;;;;5093861;28;20098;-72
2023/03/09 05:04:22;;;;;;;9.20;5.22;;;;;;;;;;5094972;28;20030;-71
2023/03/09 05:07:08;;;;;;;11.05;5.32;;;;;;;;;;5093656;28;20106;-72
2023/03/09 05:09:54;;;;;;;11.25;5.88;;;;;;;;;;5094786;28;20479;-71
2023/03/09 05:12:39;;;;;;;13.98;6.70;;;;;;;;;;5096502;27;20012;-72
2023/03/09 05:15:25;;;;;;;10.68;6.35;;;;;;;;;;5095175;28;20344;-70
2023/03/09 05:18:11;;;;;;;12.27;6.78;;;;;;;;;;5079515;28;20020;-73
2023/03/09 05:20:56;;;;;;;8.63;5.72;;;;;;;;;;5079954;28;20020;-72
2023/03/09 05:23:42;;;;;;;11.05;6.70;;;;;;;;;;5094964;28;20445;-72
2023/03/09 05:26:28;;;;;;;14.98;6.20;;;;;;;;;;5080011;28;20035;-72
2023/03/09 05:29:13;;;;;;;11.77;5.70;;;;;;;;;;5094770;28;20093;-70
2023/03/09 05:31:59;;;;;;;9.57;5.47;;;;;;;;;;5094730;28;20444;-72
2023/03/09 05:34:46;;;;;;;12.20;6.00;;;;;;;;;;5094541;28;20034;-72
2023/03/09 05:37:32;;;;;;;9.00;5.53;;;;;;;;;;5094357;28;20019;-72
2023/03/09 05:40:21;;;;;;;12.02;5.13;;;;;;;;;;5079742;28;20044;-72
2023/03/09 05:43:06;;;;;;;8.65;5.10;;;;;;;;;;5080506;28;20432;-72
2023/03/09 05:45:55;;;;;;;15.55;5.63;;;;;;;;;;5094121;28;20533;-72
2023/03/09 05:48:41;;;;;;;13.07;5.28;;;;;;;;;;5094066;28;20032;-73
2023/03/09 05:51:27;;;;;;;13.90;5.10;;;;;;;;;;5094209;28;20016;-71
2023/03/09 05:54:12;;;;;;;13.57;4.93;;;;;;;;;;5095142;28;20026;-72
2023/03/09 05:56:58;;;;;;;9.23;5.35;;;;;;;;;;5094156;28;20027;-71
2023/03/09 05:59:46;;;;;;;10.07;4.78;;;;;;;;;;5094156;28;20052;-71
2023/03/09 06:02:32;;;;;;;14.07;5.38;;;;;;;;;;5095255;28;20490;-72
2023/03/09 06:05:18;;;;;;;15.60;5.10;;;;;;;;;;5093858;28;20110;-72
2023/03/09 06:08:03;;;;;;;17.58;6.00;;;;;;;;;;5079398;28;20471;-72
2023/03/09 06:10:49;;;;;;;11.85;5.78;;;;;;;;;;5079464;28;20032;-72
2023/03/09 06:13:34;;;;;;;11.68;4.53;;;;;;;;;;5093951;28;20447;-71
2023/03/09 06:16:20;;;;;;;8.80;4.97;;;;;;;;;;5093894;28;20020;-71
2023/03/09 06:19:06;;;;;;;9.85;5.13;;;;;;;;;;5096811;28;20039;-72
2023/03/09 06:21:51;;;;;;;9.90;5.28;;;;;;;;;;5097742;28;20156;-71
2023/03/09 06:24:37;;;;;;;10.23;4.82;;;;;;;;;;5098504;28;20043;-72
2023/03/09 06:27:23;;;;;;;8.02;4.72;;;;;;;;;;5107915;28;20053;-71
2023/03/09 06:30:08;;;;;;;12.82;5.30;;;;;;;;;;5108273;28;20027;-73
2023/03/09 06:32:56;;;;;;;9.57;4.50;;;;;;;;;;5096527;28;20015;-73
2023/03/09 06:35:42;;;;;;;9.55;5.10;;;;;;;;;;5097022;28;20020;-73
2023/03/09 06:38:27;;;;;;;8.25;4.80;;;;;;;;;;5097081;28;20016;-72
2023/03/09 06:41:14;;;;;;;8.32;4.75;;;;;;;;;;5097268;28;20107;-72
2023/03/09 06:44:00;;;;;;;40.78;6.55;;;;;;;;;;5096103;28;20078;-72
2023/03/09 06:46:45;;;;;;;12.18;4.65;;;;;;;;;;5096314;28;20115;-73
2023/03/09 06:49:31;;;;;;;20.98;5.45;;;;;;;;;;5096947;28;20031;-71
2023/03/09 06:52:16;;;;;;;16.20;5.47;;;;;;;;;;5083199;28;20020;-72
2023/03/09 06:55:02;;;;;;;7.63;4.78;;;;;;;;;;5097100;28;20027;-71
2023/03/09 06:57:48;;;;;;;9.68;4.82;;;;;;;;;;5098473;28;20089;-72
2023/03/09 07:00:40;;;;;;;12.82;4.97;;;;;;;;;;5097126;28;20016;-71
2023/03/09 07:03:25;;;;;;;11.60;5.07;;;;;;;;;;5097167;28;20031;-72
2023/03/09 07:06:11;;;;;;;18.15;4.85;;;;;;;;;;5099720;28;20376;-72
2023/03/09 07:08:57;;;;;;;13.23;4.57;;;;;;;;;;5098281;28;20432;-70
2023/03/09 07:11:43;;;;;;;19.50;4.88;;;;;;;;;;5096822;28;20024;-72
2023/03/09 07:14:28;;;;;;;14.93;4.80;;;;;;;;;;5097075;28;20024;-72
2023/03/09 07:17:14;;;;;;;13.43;4.88;;;;;;;;;;5097478;28;20020;-72
2023/03/09 07:19:59;;;;;;;9.95;5.22;;;;;;;;;;5097375;28;20024;-72
2023/03/09 07:22:46;;;;;;;9.90;4.75;;;;;;;;;;5096902;28;20436;-71
2023/03/09 07:25:34;;;;;;;9.77;4.30;;;;;;;;;;5096656;28;20024;-72
2023/03/09 07:28:19;;;;;;;8.07;3.40;;;;;;;;;;5097669;28;20429;-71
2023/03/09 07:31:05;;;;;;;6.35;3.10;;;;;;;;;;5081728;28;20031;-72
2023/03/09 07:33:51;;;;;;;9.77;2.97;;;;;;;;;;5096889;28;20107;-73
2023/03/09 07:36:37;;;;;;;5.03;2.90;;;;;;;;;;5096985;28;20030;-72
2023/03/09 07:39:22;;;;;;;4.32;2.55;;;;;;;;;;5096198;28;20090;-72
2023/03/09 07:42:08;;;;;;;5.80;3.10;;;;;;;;;;5096301;28;20023;-72
2023/03/09 07:44:53;;;;;;;6.07;2.90;;;;;;;;;;5096390;28;20101;-72
2023/03/09 07:47:39;;;;;;;5.57;3.17;;;;;;;;;;5095833;28;20028;-71
2023/03/09 07:50:25;;;;;;;6.97;3.38;;;;;;;;;;5096375;28;20024;-73
2023/03/09 07:53:10;;;;;;;7.95;3.40;;;;;;;;;;5095626;28;20016;-72
2023/03/09 07:55:56;;;;;;;7.47;3.50;;;;;;;;;;5095818;28;20035;-71
2023/03/09 07:58:43;;;;;;;5.65;3.33;;;;;;;;;;5096154;28;20468;-71
2023/03/09 08:01:28;;;;;;;7.95;3.58;;;;;;;;;;5095864;28;20117;-71
2023/03/09 08:04:16;;;;;;;5.40;3.00;;;;;;;;;;5095862;28;20039;-71
2023/03/09 08:07:01;;;;;;;4.70;2.95;;;;;;;;;;5082098;28;20513;-71
2023/03/09 08:09:47;;;;;;;8.38;3.22;;;;;;;;;;5082280;28;20399;-71
2023/03/09 08:12:33;;;;;;;8.27;3.50;;;;;;;;;;5082423;28;20024;-72
2023/03/09 08:15:19;;;;;;;6.55;3.60;;;;;;;;;;5096134;28;20349;-71
2023/03/09 08:18:04;;;;;;;8.18;2.90;;;;;;;;;;5096911;28;20024;-70
2023/03/09 08:20:50;;;;;;;6.28;2.85;;;;;;;;;;5095745;28;20020;-70
2023/03/09 08:23:39;;;;;;;10.70;3.03;;;;;;;;;;5095726;28;20371;-74
2023/03/09 08:26:25;;;;;;;9.82;2.88;;;;;;;;;;5095372;28;20052;-71
2023/03/09 08:29:11;;;;;;;4.97;3.17;;;;;;;;;;5095214;28;20020;-72
2023/03/09 08:31:56;;;;;;;9.45;4.10;;;;;;;;;;5095380;28;20357;-70
2023/03/09 08:34:42;;;;;;;8.63;3.10;;;;;;;;;;5095479;28;20066;-71
2023/03/09 08:37:27;;;;;;;8.10;2.70;;;;;;;;;;5095123;28;20028;-71
2023/03/09 08:40:14;;;;;;;16.10;2.75;;;;;;;;;;5080799;28;20020;-71
2023/03/09 08:42:59;;;;;;;7.38;2.60;;;;;;;;;;5093647;28;20027;-71
2023/03/09 08:45:45;;;;;;;6.15;2.33;;;;;;;;;;5095021;28;20016;-71
2023/03/09 08:48:30;;;;;;;6.57;2.35;;;;;;;;;;5096913;27;20080;-72
2023/03/09 08:51:17;;;;;;;10.57;2.05;;;;;;;;;;5095317;28;20111;-71
2023/03/09 08:54:03;;;;;;;6.47;2.20;;;;;;;;;;5095979;28;20352;-72
2023/03/09 08:56:48;;;;;;;9.02;2.30;;;;;;;;;;5094126;28;20020;-71
2023/03/09 08:59:34;;;;;;;4.53;2.10;;;;;;;;;;5094950;28;20103;-71
2023/03/09 09:02:20;;;;;;;9.68;2.72;;;;;;;;;;5094760;28;20065;-71
2023/03/09 09:05:06;;;;;;;3.75;2.40;;;;;;;;;;5094607;28;20020;-71
2023/03/09 09:07:51;;;;;;;5.63;3.33;;;;;;;;;;5094222;28;20056;-71
2023/03/09 09:10:42;;;;;;;7.82;3.63;;;;;;;;;;5094118;28;20109;-70
2023/03/09 09:13:27;;;;;;;2.90;2.10;;;;;;;;;;5094530;28;20052;-71
2023/03/09 09:16:14;;;;;;;5.72;3.03;;;;;;;;;;5080538;28;20024;-71
2023/03/09 09:18:59;;;;;;;4.00;2.25;;;;;;;;;;5094817;28;20076;-73
2023/03/09 09:21:45;;;;;;;9.65;2.90;;;;;;;;;;5094435;28;20050;-71
2023/03/09 09:24:38;;;;;;;4.18;2.33;;;;;;;;;;5081342;28;20016;-71
2023/03/09 09:27:24;;;;;;;7.97;2.70;;;;;;;;;;5094459;28;20440;-70
2023/03/09 09:30:10;;;;;;;5.13;2.47;;;;;;;;;;5096045;28;20024;-71
2023/03/09 09:32:55;;;;;;;12.77;3.50;;;;;;;;;;5104050;28;20401;-70
2023/03/09 09:35:41;;;;;;;7.78;2.60;;;;;;;;;;5106221;28;20016;-71
2023/03/09 09:38:27;;;;;;;7.80;2.65;;;;;;;;;;5094318;28;20449;-71
2023/03/09 09:41:18;;;;;;;8.20;2.97;;;;;;;;;;5079127;28;20460;-71
2023/03/09 09:44:07;;;;;;;9.30;3.28;;;;;;;;;;5094225;28;20012;-72
2023/03/09 09:46:53;;;;;;;5.25;3.05;;;;;;;;;;5095356;28;20083;-70
2023/03/09 09:49:42;;;;;;;14.20;3.58;;;;;;;;;;5094430;28;20028;-71
2023/03/09 09:52:37;;;;;;;11.77;2.85;;;;;;;;;;5081236;28;20020;-70
2023/03/09 09:55:31;;;;;;;6.35;3.00;;;;;;;;;;5107751;28;20075;-71
2023/03/09 09:58:22;;;;;;;7.10;2.60;;;;;;;;;;5109951;28;20016;-71
2023/03/09 10:01:21;;;;;;;4.53;2.63;;;;;;;;;;5086886;28;20027;-72
2023/03/09 10:04:14;;;;;;;3.70;2.60;;;;;;;;;;5085509;28;20368;-71
2023/03/09 10:07:03;;;;;;;10.50;2.88;;;;;;;;;;5081934;28;20479;-71
2023/03/09 10:09:51;;;;;;;6.18;2.60;;;;;;;;;;5083272;28;20079;-71
2023/03/09 10:12:38;;;;;;;7.68;2.75;;;;;;;;;;5098015;28;20043;-71
2023/03/09 10:15:27;;;;;;;7.13;2.80;;;;;;;;;;5098143;28;20094;-71
2023/03/09 10:18:15;;;;;;;4.85;3.00;;;;;;;;;;5083996;28;20042;-71
2023/03/09 10:21:01;;;;;;;5.50;2.72;;;;;;;;;;5083571;28;20020;-72
2023/03/09 10:23:46;;;;;;;7.38;2.50;;;;;;;;;;5098236;28;20447;-71
2023/03/09 10:26:36;;;;;;;5.30;2.45;;;;;;;;;;5098028;28;20082;-70
2023/03/09 10:29:29;;;;;;;22.40;3.00;;;;;;;;;;5097207;28;20123;-69
2023/03/09 10:32:35;;;;;;;3.45;1.92;;;;;;;;;;5098866;28;20048;-70
2023/03/09 10:35:31;;;;;;;6.45;2.65;;;;;;;;;;5081300;28;20119;-73
2023/03/09 10:38:18;;;;;;;3.85;2.50;;;;;;;;;;5097641;28;20038;-72
2023/03/09 10:41:05;;;;;;;13.13;2.80;;;;;;;;;;5097937;28;20054;-71
2023/03/09 10:43:55;;;;;;;7.80;2.55;;;;;;;;;;5084062;28;20436;-71
2023/03/09 10:46:58;;;;;;;8.45;2.53;;;;;;;;;;5097681;28;20170;-71
2023/03/09 10:50:04;;;;;;;21.98;4.03;;;;;;;;;;5081585;28;20517;-70
2023/03/09 10:52:50;;;;;;;3.08;2.13;;;;;;;;;;5097325;28;20436;-71
2023/03/09 10:55:37;;;;;;;6.28;2.42;;;;;;;;;;5097648;28;20047;-72
2023/03/09 10:58:22;;;;;;;6.63;2.33;;;;;;;;;;5097527;28;20024;-71
2023/03/09 11:01:14;;;;;;;9.43;2.33;;;;;;;;;;5096003;28;20031;-71
2023/03/09 11:04:00;;;;;;;4.00;1.92;;;;;;;;;;5095428;28;20028;-71
2023/03/09 11:06:48;;;;;;;3.70;1.90;;;;;;;;;;5107544;28;20048;-71
2023/03/09 11:09:36;;;;;;;11.88;2.70;;;;;;;;;;5102515;28;20062;-72
2023/03/09 11:12:21;;;;;;;9.93;2.80;;;;;;;;;;5117173;28;20059;-71
2023/03/09 11:15:13;;;;;;;17.73;3.17;;;;;;;;;;5100985;28;20406;-73
2023/03/09 11:18:00;;;;;;;6.15;2.00;;;;;;;;;;5101653;28;20043;-72
2023/03/09 11:20:52;;;;;;;4.85;1.73;;;;;;;;;;5103201;28;20020;-71
2023/03/09 11:24:00;;;;;;;5.55;1.90;;;;;;;;;;5117155;28;20031;-71
2023/03/09 11:26:54;;;;;;;12.30;1.90;;;;;;;;;;5117211;28;20503;-72
2023/03/09 11:29:39;;;;;;;7.20;1.90;;;;;;;;;;5117118;28;20033;-71
2023/03/09 11:32:25;;;;;;;6.55;2.00;;;;;;;;;;5076683;28;20087;-72
2023/03/09 11:35:14;;;;;;;8.02;1.83;;;;;;;;;;5075252;28;20027;-71
2023/03/09 11:38:02;;;;;;;5.95;2.15;;;;;;;;;;5076713;28;20028;-71
2023/03/09 11:40:49;;;;;;;4.80;1.90;;;;;;;;;;5077875;28;20179;-71
2023/03/09 11:43:39;;;;;;;8.63;2.30;;;;;;;;;;5076383;28;20414;-72
2023/03/09 11:46:25;;;;;;;5.45;2.00;;;;;;;;;;5076285;28;20024;-71
2023/03/09 11:49:14;;;;;;;6.22;2.42;;;;;;;;;;5061829;28;20433;-71
2023/03/09 11:52:00;;;;;;;4.47;2.20;;;;;;;;;;5076785;28;20020;-71
2023/03/09 11:54:46;;;;;;;20.65;3.00;;;;;;;;;;5062089;28;20360;-75
2023/03/09 11:57:33;;;;;;;5.18;3.22;;;;;;;;;;5061378;28;20456;-72
2023/03/09 12:00:20;;;;;;;5.95;2.90;;;;;;;;;;5077307;28;20020;-72
2023/03/09 12:03:11;;;;;;;6.63;2.60;;;;;;;;;;5077021;28;20028;-72
2023/03/09 12:06:00;;;;;;;8.38;2.20;;;;;;;;;;5077868;28;20098;-71
2023/03/09 12:08:46;;;;;;;5.65;2.45;;;;;;;;;;5061534;28;20433;-72
2023/03/09 12:11:38;;;;;;;10.35;3.30;;;;;;;;;;5076309;28;20411;-74
2023/03/09 12:14:33;;;;;;;5.20;2.50;;;;;;;;;;5061969;28;20421;-71
2023/03/09 12:17:21;;;;;;;8.65;2.47;;;;;;;;;;5060954;28;20021;-71
2023/03/09 12:20:18;;;;;;;7.95;2.17;;;;;;;;;;5075517;28;20020;-73
2023/03/09 12:23:04;;;;;;;13.55;2.45;;;;;;;;;;5075691;28;20035;-71
2023/03/09 12:25:56;;;;;;;6.63;2.13;;;;;;;;;;5066297;28;20455;-72
2023/03/09 12:28:42;;;;;;;14.50;2.40;;;;;;;;;;5090045;28;20039;-74
2023/03/09 12:31:29;;;;;;;8.00;2.35;;;;;;;;;;5080049;28;20020;-72
2023/03/09 12:34:15;;;;;;;5.32;2.00;;;;;;;;;;5095324;28;20047;-71
2023/03/09 12:37:19;;;;;;;7.15;2.45;;;;;;;;;;5080711;28;20020;-72
2023/03/09 12:40:29;;;;;;;3.58;2.05;;;;;;;;;;5094833;28;20041;-72
2023/03/09 12:43:14;;;;;;;2.88;1.80;;;;;;;;;;5094307;28;20019;-72
2023/03/09 12:46:20;;;;;;;3.95;1.90;;;;;;;;;;5094644;28;20020;-72
2023/03/09 12:49:12;;;;;;;4.88;2.10;;;;;;;;;;5094300;28;20437;-72
2023/03/09 12:52:03;;;;;;;9.82;2.17;;;;;;;;;;5096510;28;20456;-72
2023/03/09 12:55:00;;;;;;;10.00;2.30;;;;;;;;;;5114638;28;20358;-72
2023/03/09 12:57:46;;;;;;;3.78;2.13;;;;;;;;;;5099142;28;20027;-70
2023/03/09 13:00:36;;;;;;;4.10;2.05;;;;;;;;;;5108104;28;20034;-72
2023/03/09 13:03:40;;;;;;;10.60;2.35;;;;;;;;;;5099106;28;20084;-71
2023/03/09 13:06:38;;;;;;;2.90;2.10;;;;;;;;;;5081527;28;20127;-73
2023/03/09 13:09:33;;;;;;;6.07;2.35;;;;;;;;;;5047034;28;20052;-71
2023/03/09 13:12:28;;;;;;;8.70;2.63;;;;;;;;;;5073196;28;20020;-72
2023/03/09 13:15:27;;;;;;;9.98;2.40;;;;;;;;;;5088853;28;20039;-71
2023/03/09 13:18:22;;;;;;;7.40;2.28;;;;;;;;;;5098066;28;20012;-70
2023/03/09 13:21:26;;;;;;;4.05;2.08;;;;;;;;;;5095097;28;20089;-70
2023/03/09 13:24:15;;;;;;;3.55;1.95;;;;;;;;;;5094137;28;20056;-71
2023/03/09 13:27:13;;;;;;;4.95;2.20;;;;;;;;;;5079466;28;20035;-71
2023/03/09 13:30:00;;;;;;;2.95;1.88;;;;;;;;;;5093601;28;20452;-71
2023/03/09 13:32:51;;;;;;;5.05;2.10;;;;;;;;;;5094153;28;20432;-71
2023/03/09 13:35:37;;;;;;;9.45;2.03;;;;;;;;;;5094191;28;20020;-70
2023/03/09 13:38:26;;;;;;;3.38;2.05;;;;;;;;;;5079323;28;20345;-71
2023/03/09 13:41:16;;;;;;;7.35;2.30;;;;;;;;;;5093682;28;20027;-71
2023/03/09 13:44:01;;;;;;;3.42;1.80;;;;;;;;;;5078385;28;20375;-70
2023/03/09 13:46:48;;;;;;;18.10;2.63;;;;;;;;;;5079055;28;20016;-71
2023/03/09 13:49:35;;;;;;;4.80;2.42;;;;;;;;;;5078972;28;20020;-71
2023/03/09 13:52:21;;;;;;;7.60;2.22;;;;;;;;;;5093886;28;20056;-71
2023/03/09 13:55:16;;;;;;;8.90;1.90;;;;;;;;;;5094054;28;20073;-71
2023/03/09 13:58:12;;;;;;;2.05;1.63;;;;;;;;;;5072010;28;20028;-71
2023/03/09 14:00:58;;;;;;;17.48;2.42;;;;;;;;;;5064316;28;20034;-71
2023/03/09 14:03:48;;;;;;;7.95;2.10;;;;;;;;;;5073716;28;20522;-72
2023/03/09 14:06:35;;;;;;;5.97;2.13;;;;;;;;;;5071213;28;20186;-71
2023/03/09 14:09:32;;;;;;;5.07;2.78;;;;;;;;;;5082141;28;20045;-72
2023/03/09 14:12:23;;;;;;;5.07;2.70;;;;;;;;;;5076659;28;20036;-71
2023/03/09 14:15:16;;;;;;;34.55;4.07;;;;;;;;;;5084216;28;20020;-72
2023/03/09 14:18:02;;;;;;;26.95;2.97;;;;;;;;;;5081068;28;20341;-71
2023/03/09 14:20:48;;;;;;;9.13;2.55;;;;;;;;;;5070928;28;20103;-71
2023/03/09 14:23:39;;;;;;;10.13;2.88;;;;;;;;;;5078523;28;20043;-73
2023/03/09 14:26:24;;;;;;;8.23;3.45;;;;;;;;;;5084004;28;20024;-72
2023/03/09 14:29:16;;;;;;;5.18;3.30;;;;;;;;;;5074304;28;20035;-71
2023/03/09 14:32:18;;;;;;;7.82;3.33;;;;;;;;;;5073250;28;20055;-72
2023/03/09 14:35:22;;;;;;;4.95;2.70;;;;;;;;;;5073466;28;20024;-72
2023/03/09 14:38:21;;;;;;;17.27;2.95;;;;;;;;;;5072267;28;20327;-71
2023/03/09 14:41:17;;;;;;;4.70;2.17;;;;;;;;;;5077293;28;20020;-71
2023/03/09 14:44:04;;;;;;;3.33;2.28;;;;;;;;;;5077161;28;20039;-72
2023/03/09 14:46:50;;;;;;;63.95;4.68;;;;;;;;;;5062790;28;20081;-72
2023/03/09 14:49:35;;;;;;;42.20;4.68;;;;;;;;;;5076492;28;20028;-71
2023/03/09 14:52:22;;;;;;;6.45;2.40;;;;;;;;;;5076869;28;20070;-72
2023/03/09 14:55:15;;;;;;;5.38;2.17;;;;;;;;;;5076871;28;20017;-72
2023/03/09 14:58:00;;;;;;;5.28;2.47;;;;;;;;;;5076703;28;20013;-71
2023/03/09 15:00:46;;;;;;;5.13;2.03;;;;;;;;;;5076812;28;20021;-72
2023/03/09 15:03:32;;;;;;;22.88;3.35;;;;;;;;;;5076660;28;20219;-75
2023/03/09 15:06:17;;;;;;;13.88;2.45;;;;;;;;;;5075557;28;20044;-71
2023/03/09 15:09:04;;;;;;;7.18;2.47;;;;;;;;;;5077868;28;20033;-72
2023/03/09 15:11:50;;;;;;;9.63;2.63;;;;;;;;;;5062790;28;20017;-71
2023/03/09 15:14:36;;;;;;;37.97;4.75;;;;;;;;;;5076523;28;20102;-71
2023/03/09 15:17:22;;;;;;;29.50;4.07;;;;;;;;;;5076737;28;20142;-72
2023/03/09 15:20:12;;;;;;;40.60;5.35;;;;;;;;;;5076411;28;20020;-72
2023/03/09 15:22:58;;;;;;;60.85;7.13;;;;;;;;;;5075069;28;20108;-72
2023/03/09 15:25:43;;;;;;;36.38;6.03;;;;;;;;;;5076807;28;20013;-73
2023/03/09 15:28:29;;;;;;;29.63;5.30;;;;;;;;;;5062168;28;20028;-71
2023/03/09 15:31:15;;;;;;;12.10;4.95;;;;;;;;;;5062706;28;20021;-71
2023/03/09 15:34:00;;;;;;;21.58;4.93;;;;;;;;;;5076153;28;20354;-72
2023/03/09 15:36:46;;;;;;;27.25;5.30;;;;;;;;;;5076207;28;20495;-70
2023/03/09 15:39:32;;;;;;;4.80;2.42;;;;;;;;;;5076292;28;20059;-70
2023/03/09 15:42:19;;;;;;;6.00;2.83;;;;;;;;;;5075099;28;20031;-69
2023/03/09 15:45:05;;;;;;;5.30;2.95;;;;;;;;;;5075558;28;20094;-70
2023/03/09 15:47:54;;;;;;;15.98;4.15;;;;;;;;;;5075260;28;20036;-71
2023/03/09 15:50:40;;;;;;;26.15;4.20;;;;;;;;;;5060579;28;20059;-71
2023/03/09 15:53:26;;;;;;;9.68;4.05;;;;;;;;;;5076046;28;20142;-71
2023/03/09 15:56:12;;;;;;;9.82;3.63;;;;;;;;;;5062653;28;20082;-71
2023/03/09 15:58:58;;;;;;;14.32;3.50;;;;;;;;;;5075476;28;20020;-71
2023/03/09 16:01:43;;;;;;;7.72;3.65;;;;;;;;;;5075537;28;20013;-70
2023/03/09 16:04:29;;;;;;;20.75;3.78;;;;;;;;;;5075455;28;20440;-72
2023/03/09 16:07:15;;;;;;;21.17;4.65;;;;;;;;;;5075541;28;20449;-70
2023/03/09 16:10:00;;;;;;;12.60;3.53;;;;;;;;;;5075330;28;20111;-69
2023/03/09 16:12:48;;;;;;;9.23;3.28;;;;;;;;;;5061305;28;20028;-72
2023/03/09 16:15:34;;;;;;;8.73;2.70;;;;;;;;;;5062512;28;20024;-73
2023/03/09 16:18:19;;;;;;;11.82;3.35;;;;;;;;;;5077221;28;20020;-72
2023/03/09 16:21:05;;;;;;;30.48;3.83;;;;;;;;;;5063084;28;20032;-72
2023/03/09 16:23:51;;;;;;;23.35;4.20;;;;;;;;;;5076358;28;20024;-72
2023/03/09 16:26:37;;;;;;;13.32;3.35;;;;;;;;;;5075873;28;20083;-72
2023/03/09 16:29:26;;;;;;;13.52;3.33;;;;;;;;;;5076627;28;20078;-71
2023/03/09 16:32:11;;;;;;;16.20;3.38;;;;;;;;;;5068776;28;20020;-72
2023/03/09 16:34:57;;;;;;;18.65;3.90;;;;;;;;;;5083151;28;20013;-77
2023/03/09 16:37:43;;;;;;;16.17;3.63;;;;;;;;;;5083317;28;20039;-71
2023/03/09 16:40:28;;;;;;;10.30;4.03;;;;;;;;;;5070100;28;20021;-72